Time;durP1;ratioP1;P1;durP2;ratioP2;P2;SDS_P1;SDS_P2;PMS_P1;PMS_P2;Temp;Humidity;BMP_temperature;BMP_pressure;BME280_temperature;BME280_humidity;BME280_pressure;Samples;Min_cycle;Max_cycle;Signal;HPM_P1;HPM_P2
2020/12/12 00:00:54;;;;;;;44.93;18.23;;;2.80;99.90;;;;;;4987870;28;20054;-67
2020/12/12 00:03:24;;;;;;;44.57;18.23;;;2.90;99.90;;;;;;4984930;28;20046;-67
2020/12/12 00:05:51;;;;;;;39.23;17.13;;;2.90;99.90;;;;;;4988534;28;20057;-66
2020/12/12 00:08:18;;;;;;;49.73;19.37;;;2.90;99.90;;;;;;4988990;28;20065;-67
2020/12/12 00:10:46;;;;;;;45.27;18.37;;;2.80;99.90;;;;;;4989881;28;20478;-66
2020/12/12 00:13:14;;;;;;;40.53;17.37;;;2.80;99.90;;;;;;4988374;28;20050;-66
2020/12/12 00:15:41;;;;;;;46.83;18.37;;;2.90;99.90;;;;;;4987213;28;20105;-67
2020/12/12 00:18:07;;;;;;;42.00;17.30;;;2.90;99.90;;;;;;4989906;28;20117;-66
2020/12/12 00:20:34;;;;;;;45.33;18.67;;;2.80;99.90;;;;;;4986846;28;20517;-66
2020/12/12 00:23:01;;;;;;;40.73;17.63;;;2.90;99.90;;;;;;4985338;28;20046;-66
2020/12/12 00:25:32;;;;;;;38.90;16.50;;;2.90;99.90;;;;;;4984199;28;20129;-67
2020/12/12 00:27:59;;;;;;;43.60;17.37;;;3.00;99.90;;;;;;4984989;28;20043;-66
2020/12/12 00:30:26;;;;;;;43.30;18.37;;;2.90;99.90;;;;;;4984889;28;20051;-66
2020/12/12 00:32:52;;;;;;;46.87;18.37;;;2.90;99.90;;;;;;4981936;28;20109;-67
2020/12/12 00:35:19;;;;;;;41.77;18.43;;;2.90;99.90;;;;;;4979270;28;20051;-67
2020/12/12 00:37:46;;;;;;;42.20;18.13;;;2.90;99.90;;;;;;4985155;28;20058;-67
2020/12/12 00:40:13;;;;;;;42.80;19.07;;;2.90;99.90;;;;;;4985205;28;20538;-67
2020/12/12 00:42:41;;;;;;;41.17;17.50;;;2.90;99.90;;;;;;4986472;28;20392;-67
2020/12/12 00:45:08;;;;;;;42.83;18.53;;;2.90;99.90;;;;;;4988794;28;20503;-67
2020/12/12 00:47:35;;;;;;;38.83;16.30;;;2.90;99.90;;;;;;4988311;28;20058;-67
2020/12/12 00:50:01;;;;;;;42.13;18.17;;;3.00;99.90;;;;;;4989863;28;20046;-67
2020/12/12 00:52:34;;;;;;;41.27;16.17;;;2.90;99.90;;;;;;4988972;28;20042;-67
2020/12/12 00:55:00;;;;;;;45.07;19.07;;;3.00;99.90;;;;;;4986534;28;20054;-67
2020/12/12 00:57:27;;;;;;;43.40;18.13;;;2.90;99.90;;;;;;4986832;28;20046;-67
2020/12/12 00:59:54;;;;;;;41.53;17.57;;;2.90;99.90;;;;;;4986041;28;20054;-67
2020/12/12 01:02:21;;;;;;;39.47;17.07;;;2.90;99.90;;;;;;4983676;28;20054;-67
2020/12/12 01:04:51;;;;;;;43.17;17.90;;;2.90;99.90;;;;;;4986110;28;20565;-67
2020/12/12 01:07:17;;;;;;;42.03;17.60;;;2.90;99.90;;;;;;4986556;28;20100;-67
2020/12/12 01:09:44;;;;;;;41.87;17.70;;;3.00;99.90;;;;;;4986466;28;20050;-66
2020/12/12 01:12:11;;;;;;;44.87;17.70;;;3.00;99.90;;;;;;4990639;28;20049;-67
2020/12/12 01:14:37;;;;;;;39.63;16.00;;;3.00;99.90;;;;;;4990915;28;20054;-67
2020/12/12 01:17:14;;;;;;;42.77;18.00;;;3.00;99.90;;;;;;4990155;28;20050;-66
2020/12/12 01:19:42;;;;;;;38.30;16.47;;;3.00;99.90;;;;;;4985869;28;20050;-67
2020/12/12 01:22:09;;;;;;;41.60;17.13;;;3.00;99.90;;;;;;4988645;28;20096;-67
2020/12/12 01:24:35;;;;;;;42.83;19.13;;;3.00;99.90;;;;;;4991674;28;20082;-67
2020/12/12 01:27:02;;;;;;;43.53;18.33;;;3.00;99.90;;;;;;4990450;28;20046;-67
2020/12/12 01:29:29;;;;;;;41.00;17.67;;;3.00;99.90;;;;;;4991105;28;20050;-67
2020/12/12 01:31:55;;;;;;;38.77;17.87;;;3.10;99.90;;;;;;4988933;28;20046;-67
2020/12/12 01:34:23;;;;;;;39.13;16.60;;;3.10;99.90;;;;;;4989945;28;20046;-67
2020/12/12 01:36:49;;;;;;;43.93;17.33;;;3.10;99.90;;;;;;4990179;28;20046;-67
2020/12/12 01:39:16;;;;;;;40.83;17.30;;;3.00;99.90;;;;;;4989055;28;20054;-67
2020/12/12 01:41:43;;;;;;;35.40;16.77;;;3.00;99.90;;;;;;4989693;28;20404;-67
2020/12/12 01:44:15;;;;;;;40.07;16.73;;;3.00;99.90;;;;;;4989461;28;20059;-67
2020/12/12 01:46:42;;;;;;;36.50;16.17;;;3.00;99.90;;;;;;4989926;28;20495;-67
2020/12/12 01:49:08;;;;;;;37.23;16.30;;;3.00;99.90;;;;;;4989493;28;20058;-67
2020/12/12 01:51:37;;;;;;;38.70;16.67;;;3.00;99.90;;;;;;4987514;28;20043;-67
2020/12/12 01:54:05;;;;;;;35.87;15.37;;;3.10;99.90;;;;;;4989648;28;20782;-67
2020/12/12 01:56:32;;;;;;;40.23;16.63;;;3.20;99.90;;;;;;4987403;28;20050;-67
2020/12/12 01:58:59;;;;;;;38.40;16.43;;;3.10;99.90;;;;;;4988198;28;20054;-67
2020/12/12 02:01:28;;;;;;;37.40;16.10;;;3.10;99.90;;;;;;4988195;28;20057;-67
2020/12/12 02:03:56;;;;;;;43.63;17.07;;;3.00;99.90;;;;;;4989790;28;20054;-67
2020/12/12 02:06:23;;;;;;;34.27;15.87;;;3.00;99.90;;;;;;4988696;28;20042;-67
2020/12/12 02:08:53;;;;;;;34.03;15.20;;;3.10;99.90;;;;;;4987850;28;20072;-67
2020/12/12 02:11:20;;;;;;;38.60;16.83;;;3.10;99.90;;;;;;4988589;28;20045;-67
2020/12/12 02:13:48;;;;;;;36.07;15.60;;;3.40;99.90;;;;;;4989101;28;20047;-66
2020/12/12 02:16:15;;;;;;;32.17;14.40;;;3.20;99.90;;;;;;4990080;28;20407;-67
2020/12/12 02:18:42;;;;;;;37.13;15.77;;;3.20;99.90;;;;;;4997686;28;20060;-68
2020/12/12 02:21:09;;;;;;;35.17;15.60;;;3.20;99.90;;;;;;5005438;28;20054;-69
2020/12/12 02:23:36;;;;;;;39.23;16.17;;;3.10;99.90;;;;;;5005546;28;20052;-68
2020/12/12 02:26:04;;;;;;;35.90;15.57;;;3.10;99.90;;;;;;5008852;28;20056;-68
2020/12/12 02:28:36;;;;;;;38.53;16.93;;;3.00;99.90;;;;;;5008404;28;20053;-69
2020/12/12 02:31:02;;;;;;;32.37;14.37;;;3.10;99.90;;;;;;5009152;28;20050;-68
2020/12/12 02:33:29;;;;;;;37.47;16.33;;;3.20;99.90;;;;;;5009369;28;20079;-68
2020/12/12 02:35:57;;;;;;;32.50;15.40;;;3.10;99.90;;;;;;5008941;28;20422;-68
2020/12/12 02:38:23;;;;;;;32.03;14.03;;;3.10;99.90;;;;;;4993024;28;20499;-67
2020/12/12 02:40:51;;;;;;;36.40;16.37;;;3.10;99.90;;;;;;4988439;28;20046;-67
2020/12/12 02:43:18;;;;;;;34.50;15.27;;;3.10;99.90;;;;;;4990280;28;20058;-67
2020/12/12 02:45:47;;;;;;;36.20;15.63;;;3.10;99.90;;;;;;4989318;28;20112;-67
2020/12/12 02:48:13;;;;;;;34.27;15.07;;;3.10;99.90;;;;;;4990105;28;20054;-67
2020/12/12 02:50:40;;;;;;;39.33;15.70;;;3.00;99.90;;;;;;4989920;28;20384;-67
2020/12/12 02:53:07;;;;;;;34.60;15.27;;;3.00;99.90;;;;;;4989121;28;20061;-67
2020/12/12 02:55:34;;;;;;;35.07;16.17;;;3.10;99.90;;;;;;4990325;28;20057;-67
2020/12/12 02:58:01;;;;;;;33.33;15.53;;;3.20;99.90;;;;;;4989686;28;20055;-67
2020/12/12 03:00:28;;;;;;;35.70;16.40;;;3.10;99.90;;;;;;4988142;28;20085;-66
2020/12/12 03:02:55;;;;;;;31.70;16.43;;;3.20;99.90;;;;;;4986613;28;20054;-67
2020/12/12 03:05:22;;;;;;;35.57;16.03;;;3.10;99.90;;;;;;4987287;28;20054;-66
2020/12/12 03:07:48;;;;;;;31.77;15.40;;;3.10;99.90;;;;;;4990115;28;20069;-66
2020/12/12 03:10:15;;;;;;;32.63;14.83;;;3.20;99.90;;;;;;4988585;28;20057;-66
2020/12/12 03:12:42;;;;;;;34.17;14.00;;;3.20;99.90;;;;;;4990141;28;20434;-66
2020/12/12 03:15:11;;;;;;;37.03;16.63;;;3.20;99.90;;;;;;4989206;28;20518;-66
2020/12/12 03:17:38;;;;;;;34.60;15.57;;;3.20;99.90;;;;;;4991312;28;20061;-66
2020/12/12 03:20:06;;;;;;;37.20;16.83;;;3.10;99.90;;;;;;4992900;28;20418;-66
2020/12/12 03:22:34;;;;;;;35.63;16.17;;;3.20;99.90;;;;;;4993375;28;20050;-66
2020/12/12 03:25:01;;;;;;;33.87;15.90;;;3.20;99.90;;;;;;4993452;28;20060;-66
2020/12/12 03:27:27;;;;;;;40.37;16.53;;;3.20;99.90;;;;;;5004411;28;20049;-66
2020/12/12 03:29:54;;;;;;;33.67;15.70;;;3.10;99.90;;;;;;5017231;28;20058;-66
2020/12/12 03:32:22;;;;;;;33.37;14.47;;;3.10;99.90;;;;;;5012554;28;20069;-66
2020/12/12 03:34:48;;;;;;;34.10;15.83;;;3.10;99.90;;;;;;5015796;28;20065;-66
2020/12/12 03:37:15;;;;;;;35.37;16.50;;;3.10;99.90;;;;;;5017151;28;20045;-67
2020/12/12 03:39:42;;;;;;;34.23;16.67;;;3.00;99.90;;;;;;5017847;28;20038;-66
2020/12/12 03:42:09;;;;;;;33.37;16.47;;;3.10;99.90;;;;;;5011859;28;20050;-66
2020/12/12 03:44:36;;;;;;;40.37;17.97;;;3.10;99.90;;;;;;4987228;28;20051;-66
2020/12/12 03:47:03;;;;;;;40.10;15.50;;;3.10;99.90;;;;;;4974153;28;20069;-66
2020/12/12 03:49:32;;;;;;;35.80;15.87;;;3.00;99.90;;;;;;4972779;28;20057;-66
2020/12/12 03:51:59;;;;;;;36.73;18.07;;;3.00;99.90;;;;;;4973567;28;20062;-66
2020/12/12 03:54:26;;;;;;;39.63;17.13;;;3.10;99.90;;;;;;4972915;28;20053;-66
2020/12/12 03:56:53;;;;;;;34.00;16.63;;;3.00;99.90;;;;;;4974027;28;20054;-67
2020/12/12 03:59:20;;;;;;;39.33;17.80;;;3.00;99.90;;;;;;4973155;28;20046;-67
2020/12/12 04:01:47;;;;;;;37.33;17.67;;;3.00;99.90;;;;;;4972838;28;20138;-67
2020/12/12 04:04:14;;;;;;;40.43;16.57;;;3.10;99.90;;;;;;4973062;28;20062;-66
2020/12/12 04:06:42;;;;;;;37.37;15.40;;;3.10;99.90;;;;;;4972720;28;20050;-66
2020/12/12 04:09:09;;;;;;;38.93;17.00;;;3.10;99.90;;;;;;4973599;28;20050;-66
2020/12/12 04:11:35;;;;;;;40.40;18.17;;;3.20;99.90;;;;;;4972096;28;20514;-68
2020/12/12 04:14:03;;;;;;;35.03;16.60;;;3.10;99.90;;;;;;4985100;28;20622;-66
2020/12/12 04:16:29;;;;;;;38.27;17.33;;;3.10;99.90;;;;;;4991663;28;20418;-68
2020/12/12 04:18:56;;;;;;;41.20;17.80;;;3.10;99.90;;;;;;4992322;28;20066;-66
2020/12/12 04:21:23;;;;;;;38.37;17.70;;;3.10;99.90;;;;;;4992136;28;20073;-66
2020/12/12 04:23:50;;;;;;;36.57;18.50;;;3.10;99.90;;;;;;4991718;28;20101;-66
2020/12/12 04:26:17;;;;;;;38.40;16.47;;;3.00;99.90;;;;;;4992411;28;20050;-67
2020/12/12 04:28:44;;;;;;;37.07;17.17;;;3.10;99.90;;;;;;4991477;28;20046;-66
2020/12/12 04:31:11;;;;;;;38.00;17.70;;;3.00;99.90;;;;;;4991844;28;20410;-66
2020/12/12 04:33:37;;;;;;;40.30;17.80;;;3.00;99.90;;;;;;4991495;28;20069;-66
2020/12/12 04:36:05;;;;;;;42.13;18.87;;;3.00;99.90;;;;;;4992633;28;20054;-66
2020/12/12 04:38:32;;;;;;;38.07;17.33;;;3.10;99.90;;;;;;4991329;28;20498;-69
2020/12/12 04:41:00;;;;;;;41.00;18.20;;;3.10;99.90;;;;;;4991723;28;20108;-68
2020/12/12 04:43:26;;;;;;;43.57;18.47;;;3.00;99.90;;;;;;4991949;28;20062;-66
2020/12/12 04:45:53;;;;;;;43.27;19.30;;;3.00;99.90;;;;;;4990843;28;20057;-66
2020/12/12 04:48:20;;;;;;;37.40;17.57;;;3.00;99.90;;;;;;4991947;28;20054;-66
2020/12/12 04:50:47;;;;;;;39.10;17.73;;;3.00;99.90;;;;;;4990755;28;20058;-66
2020/12/12 04:53:16;;;;;;;37.30;17.33;;;3.00;99.90;;;;;;4992097;28;20046;-66
2020/12/12 04:55:46;;;;;;;37.73;18.53;;;3.00;99.90;;;;;;4991171;28;20077;-68
2020/12/12 04:58:16;;;;;;;41.67;18.87;;;3.00;99.90;;;;;;4991983;28;20697;-66
2020/12/12 05:00:45;;;;;;;37.90;17.13;;;3.10;99.90;;;;;;4991157;28;20054;-67
2020/12/12 05:03:13;;;;;;;39.83;18.53;;;3.10;99.90;;;;;;4990906;28;20054;-66
2020/12/12 05:05:40;;;;;;;45.23;19.83;;;3.00;99.90;;;;;;4991635;28;20057;-66
2020/12/12 05:08:08;;;;;;;36.87;17.03;;;2.90;99.90;;;;;;4990985;28;20086;-66
2020/12/12 05:10:42;;;;;;;44.67;19.53;;;3.00;99.90;;;;;;4992387;28;20081;-66
2020/12/12 05:13:18;;;;;;;38.47;18.40;;;3.00;99.90;;;;;;4992677;28;20073;-66
2020/12/12 05:15:46;;;;;;;40.67;17.77;;;3.00;99.90;;;;;;4993731;28;20054;-67
2020/12/12 05:18:13;;;;;;;41.43;19.10;;;3.00;99.90;;;;;;4992969;28;20080;-66
2020/12/12 05:20:40;;;;;;;41.77;18.07;;;3.10;99.90;;;;;;4993145;28;20763;-66
2020/12/12 05:23:14;;;;;;;41.10;18.90;;;3.10;99.90;;;;;;4993644;28;20042;-66
2020/12/12 05:25:42;;;;;;;41.23;18.10;;;3.10;99.90;;;;;;4992783;28;20404;-66
2020/12/12 05:28:11;;;;;;;44.47;18.80;;;3.10;99.90;;;;;;4994401;28;20062;-66
2020/12/12 05:30:39;;;;;;;38.33;17.40;;;3.00;99.90;;;;;;4992663;28;20054;-66
2020/12/12 05:33:07;;;;;;;43.03;19.13;;;3.10;99.90;;;;;;4994345;28;20072;-66
2020/12/12 05:35:34;;;;;;;43.70;19.20;;;3.00;99.90;;;;;;4994127;28;20061;-66
2020/12/12 05:38:02;;;;;;;46.20;20.90;;;3.00;99.90;;;;;;4994118;28;20058;-66
2020/12/12 05:40:28;;;;;;;42.70;19.37;;;3.10;99.90;;;;;;4993715;28;20054;-66
2020/12/12 05:42:55;;;;;;;46.60;21.00;;;3.00;99.90;;;;;;4994215;28;20061;-66
2020/12/12 05:45:22;;;;;;;44.20;20.40;;;3.00;99.90;;;;;;4994669;28;20534;-66
2020/12/12 05:47:50;;;;;;;41.40;19.10;;;3.00;99.90;;;;;;4989968;28;20058;-66
2020/12/12 05:50:17;;;;;;;45.80;19.73;;;3.10;99.90;;;;;;4990810;28;20055;-66
2020/12/12 05:52:43;;;;;;;48.67;20.00;;;3.00;99.90;;;;;;4989493;28;20117;-66
2020/12/12 05:55:10;;;;;;;49.77;22.77;;;3.00;99.90;;;;;;4991126;28;20453;-66
2020/12/12 05:57:39;;;;;;;47.43;19.53;;;3.10;99.90;;;;;;4991219;28;20068;-66
2020/12/12 06:00:06;;;;;;;46.77;19.83;;;3.20;99.90;;;;;;4990312;28;20064;-66
2020/12/12 06:02:36;;;;;;;42.57;19.37;;;3.10;99.90;;;;;;4990985;28;20061;-66
2020/12/12 06:05:06;;;;;;;43.37;19.43;;;3.20;99.90;;;;;;4989565;28;20053;-66
2020/12/12 06:07:34;;;;;;;44.40;19.90;;;3.10;99.90;;;;;;4990662;28;20061;-66
2020/12/12 06:10:03;;;;;;;44.53;18.33;;;3.10;99.90;;;;;;4990457;28;20060;-67
2020/12/12 06:12:29;;;;;;;45.83;20.50;;;3.10;99.90;;;;;;4990330;28;20051;-66
2020/12/12 06:14:57;;;;;;;46.17;21.07;;;3.10;99.90;;;;;;4990126;28;20510;-66
2020/12/12 06:17:44;;;;;;;51.47;20.37;;;3.10;99.90;;;;;;4990247;28;20076;-67
2020/12/12 06:20:14;;;;;;;43.80;19.73;;;3.10;99.90;;;;;;4988478;28;20046;-66
2020/12/12 06:22:46;;;;;;;48.73;20.97;;;3.10;99.90;;;;;;4969998;28;20550;-67
2020/12/12 06:25:15;;;;;;;45.87;21.97;;;3.20;99.90;;;;;;4970873;28;20051;-67
2020/12/12 06:27:47;;;;;;;43.70;19.73;;;3.20;99.90;;;;;;4969762;28;20058;-67
2020/12/12 06:30:14;;;;;;;46.83;19.90;;;3.30;99.90;;;;;;4970125;28;20043;-66
2020/12/12 06:32:41;;;;;;;43.37;20.00;;;3.20;99.90;;;;;;4969904;28;20059;-66
2020/12/12 06:35:08;;;;;;;44.93;20.00;;;3.20;99.90;;;;;;4971077;28;20420;-66
2020/12/12 06:37:37;;;;;;;51.80;21.33;;;3.30;99.90;;;;;;4971103;28;20065;-67
2020/12/12 06:40:06;;;;;;;49.00;21.23;;;3.30;99.90;;;;;;4970420;28;20065;-66
2020/12/12 06:42:35;;;;;;;49.23;20.93;;;3.20;99.90;;;;;;4970301;28;20070;-68
2020/12/12 06:45:16;;;;;;;48.77;21.33;;;3.20;99.90;;;;;;4969920;28;20066;-66
2020/12/12 06:47:44;;;;;;;48.73;21.60;;;3.30;99.90;;;;;;4970961;28;20050;-66
2020/12/12 06:50:14;;;;;;;50.87;23.00;;;3.20;99.90;;;;;;4970822;28;20046;-66
2020/12/12 06:52:42;;;;;;;48.87;20.60;;;3.20;99.90;;;;;;4993713;28;20153;-67
2020/12/12 06:55:10;;;;;;;50.50;21.37;;;3.20;99.90;;;;;;4993188;28;20418;-67
2020/12/12 06:57:39;;;;;;;47.03;22.17;;;3.30;99.90;;;;;;4993810;28;20046;-67
2020/12/12 07:00:09;;;;;;;45.47;19.07;;;3.20;99.90;;;;;;4993729;28;20061;-67
2020/12/12 07:02:35;;;;;;;55.30;22.07;;;3.20;99.90;;;;;;4993334;28;20499;-67
2020/12/12 07:05:21;;;;;;;48.13;19.87;;;3.10;99.90;;;;;;4994305;28;20054;-67
2020/12/12 07:07:49;;;;;;;50.90;21.67;;;3.20;99.90;;;;;;4993238;28;20077;-66
2020/12/12 07:10:16;;;;;;;53.77;22.07;;;3.30;99.90;;;;;;4995434;28;20068;-66
2020/12/12 07:12:43;;;;;;;51.77;23.20;;;3.30;99.90;;;;;;4996480;28;20054;-66
2020/12/12 07:15:09;;;;;;;49.53;20.83;;;3.40;99.90;;;;;;4997153;28;20069;-66
2020/12/12 07:17:36;;;;;;;49.67;22.30;;;3.30;99.90;;;;;;4997516;28;20795;-66
2020/12/12 07:20:04;;;;;;;53.90;21.17;;;3.20;99.90;;;;;;4998018;28;20046;-67
2020/12/12 07:22:30;;;;;;;49.37;20.73;;;3.20;99.90;;;;;;4998382;28;20051;-67
2020/12/12 07:24:59;;;;;;;49.87;20.93;;;3.30;99.90;;;;;;4997317;28;20058;-67
2020/12/12 07:27:26;;;;;;;49.47;20.17;;;3.30;99.90;;;;;;4994002;28;20515;-67
2020/12/12 07:29:53;;;;;;;51.37;21.33;;;3.30;99.90;;;;;;4993057;28;20066;-67
2020/12/12 07:32:19;;;;;;;53.27;21.27;;;3.30;99.90;;;;;;4993971;28;20054;-67
2020/12/12 07:34:46;;;;;;;51.67;21.13;;;3.20;99.90;;;;;;4994042;28;20414;-67
2020/12/12 07:37:13;;;;;;;49.73;22.77;;;3.20;99.90;;;;;;4995199;28;20054;-67
2020/12/12 07:39:42;;;;;;;49.53;20.73;;;3.30;99.90;;;;;;4996242;28;20051;-67
2020/12/12 07:42:11;;;;;;;53.23;21.20;;;3.30;99.90;;;;;;4995207;28;20454;-67
2020/12/12 07:44:42;;;;;;;57.60;23.10;;;3.30;99.90;;;;;;4994127;28;20057;-67
2020/12/12 07:47:10;;;;;;;48.57;22.10;;;3.30;99.90;;;;;;4993098;28;20062;-67
2020/12/12 07:49:38;;;;;;;49.13;21.30;;;3.40;99.90;;;;;;4993906;28;20463;-67
2020/12/12 07:52:07;;;;;;;47.33;21.23;;;3.30;99.90;;;;;;4991772;28;20450;-67
2020/12/12 07:54:41;;;;;;;54.97;22.57;;;3.40;99.90;;;;;;4993281;28;20046;-67
2020/12/12 07:57:12;;;;;;;48.33;21.17;;;3.40;99.90;;;;;;4992598;28;20145;-67
2020/12/12 07:59:39;;;;;;;51.73;20.73;;;3.40;99.90;;;;;;4992973;28;20062;-67
2020/12/12 08:02:07;;;;;;;49.43;21.90;;;3.60;99.90;;;;;;4992272;28;20050;-67
2020/12/12 08:04:34;;;;;;;50.57;21.23;;;3.60;99.90;;;;;;4991366;28;20066;-67
2020/12/12 08:07:17;;;;;;;48.17;20.53;;;3.60;99.90;;;;;;4992438;28;20422;-67
2020/12/12 08:09:49;;;;;;;44.93;19.40;;;3.70;99.90;;;;;;4992151;28;20058;-66
2020/12/12 08:12:29;;;;;;;45.40;20.57;;;3.60;99.90;;;;;;4992680;28;20077;-67
2020/12/12 08:14:59;;;;;;;54.73;19.20;;;3.70;99.90;;;;;;4991598;28;20046;-67
2020/12/12 08:17:33;;;;;;;49.53;21.47;;;3.60;99.90;;;;;;4992916;28;20068;-67
2020/12/12 08:20:00;;;;;;;46.57;21.17;;;3.60;99.90;;;;;;4992220;28;20807;-67
2020/12/12 08:22:28;;;;;;;59.60;22.93;;;3.60;99.90;;;;;;4972432;28;20097;-68
2020/12/12 08:24:55;;;;;;;48.07;20.83;;;3.60;99.90;;;;;;4973183;28;20055;-67
2020/12/12 08:27:25;;;;;;;52.97;20.67;;;3.60;99.90;;;;;;4972235;28;20050;-66
2020/12/12 08:29:54;;;;;;;44.77;19.43;;;3.60;99.90;;;;;;4973606;28;20484;-66
2020/12/12 08:32:34;;;;;;;50.13;21.43;;;3.60;99.90;;;;;;4972401;28;20054;-67
2020/12/12 08:35:09;;;;;;;49.33;21.50;;;3.60;99.90;;;;;;4973082;28;20059;-66
2020/12/12 08:37:36;;;;;;;48.93;20.83;;;3.60;99.90;;;;;;4972240;28;20051;-67
2020/12/12 08:40:06;;;;;;;44.17;20.30;;;3.70;99.90;;;;;;4972706;28;20058;-66
2020/12/12 08:42:33;;;;;;;53.93;21.47;;;3.80;99.90;;;;;;4983230;28;20046;-72
2020/12/12 08:45:15;;;;;;;47.50;20.73;;;3.90;99.90;;;;;;4995116;28;20062;-74
2020/12/12 08:47:42;;;;;;;42.63;20.87;;;3.90;99.90;;;;;;4984382;28;20058;-71
2020/12/12 08:50:09;;;;;;;46.33;19.03;;;3.80;99.90;;;;;;4979368;28;20046;-72
2020/12/12 08:52:42;;;;;;;47.97;20.27;;;3.90;99.90;;;;;;4992012;28;20086;-67
2020/12/12 08:55:13;;;;;;;47.10;19.70;;;3.80;99.90;;;;;;4974695;28;20451;-67
2020/12/12 08:57:55;;;;;;;45.20;20.30;;;3.80;99.90;;;;;;4972271;28;20415;-67
2020/12/12 09:00:26;;;;;;;41.43;18.70;;;3.80;99.90;;;;;;4970513;28;20061;-67
2020/12/12 09:03:00;;;;;;;43.67;18.50;;;3.80;99.90;;;;;;4970870;28;20090;-67
2020/12/12 09:05:34;;;;;;;43.50;20.47;;;3.90;99.90;;;;;;4970493;28;20055;-67
2020/12/12 09:08:15;;;;;;;48.07;20.03;;;3.80;99.90;;;;;;4970403;28;20113;-67
2020/12/12 09:10:42;;;;;;;43.93;18.70;;;3.80;99.90;;;;;;4969899;28;20050;-67
2020/12/12 09:13:10;;;;;;;45.40;19.27;;;3.90;99.90;;;;;;4969824;28;20051;-66
2020/12/12 09:15:37;;;;;;;43.13;19.27;;;3.80;99.90;;;;;;4970180;28;20078;-66
2020/12/12 09:18:04;;;;;;;42.63;18.30;;;3.80;99.90;;;;;;4970672;28;20054;-67
2020/12/12 09:20:31;;;;;;;43.23;18.20;;;4.00;99.90;;;;;;4975811;28;20078;-67
2020/12/12 09:22:57;;;;;;;44.13;19.43;;;4.00;99.90;;;;;;4990586;28;20054;-67
2020/12/12 09:25:25;;;;;;;47.30;19.97;;;4.10;99.90;;;;;;4990590;28;20050;-67
2020/12/12 09:27:51;;;;;;;46.20;18.83;;;4.10;99.90;;;;;;4991054;28;20066;-67
2020/12/12 09:30:19;;;;;;;43.53;18.23;;;4.20;99.90;;;;;;4989707;28;20052;-67
2020/12/12 09:32:48;;;;;;;37.10;17.13;;;4.20;99.90;;;;;;4991247;28;20538;-67
2020/12/12 09:35:15;;;;;;;41.07;17.87;;;4.20;99.90;;;;;;4989961;28;20517;-66
2020/12/12 09:37:42;;;;;;;42.43;18.17;;;4.20;99.90;;;;;;4990703;28;20054;-67
2020/12/12 09:40:08;;;;;;;40.93;17.97;;;4.20;99.90;;;;;;4990258;28;20054;-67
2020/12/12 09:42:35;;;;;;;43.13;18.63;;;4.20;99.90;;;;;;4990145;28;20057;-67
2020/12/12 09:45:02;;;;;;;40.27;17.57;;;4.20;99.90;;;;;;4991072;28;20046;-67
2020/12/12 09:47:29;;;;;;;43.80;18.40;;;4.30;99.90;;;;;;4990047;28;20053;-67
2020/12/12 09:49:56;;;;;;;43.13;18.00;;;4.20;99.90;;;;;;4990946;28;20117;-67
2020/12/12 09:52:23;;;;;;;39.67;17.13;;;4.30;99.90;;;;;;4988851;28;20510;-67
2020/12/12 09:54:49;;;;;;;41.10;17.10;;;4.40;99.90;;;;;;4989918;28;20058;-67
2020/12/12 09:57:16;;;;;;;39.87;17.00;;;4.40;99.90;;;;;;4990187;28;20043;-67
2020/12/12 09:59:42;;;;;;;40.97;18.10;;;4.30;99.90;;;;;;4990434;28;20129;-67
2020/12/12 10:02:09;;;;;;;42.37;18.37;;;4.40;99.90;;;;;;4990592;28;20050;-67
2020/12/12 10:04:37;;;;;;;44.50;18.80;;;4.40;99.90;;;;;;4987927;28;20053;-69
2020/12/12 10:07:04;;;;;;;39.57;18.37;;;4.40;99.90;;;;;;4978600;28;20109;-71
2020/12/12 10:09:30;;;;;;;38.50;17.63;;;4.50;99.90;;;;;;4985026;28;20062;-71
2020/12/12 10:11:57;;;;;;;44.50;18.80;;;4.50;99.90;;;;;;4972797;28;20058;-71
2020/12/12 10:14:24;;;;;;;45.73;18.30;;;4.50;99.90;;;;;;4989805;28;20051;-71
2020/12/12 10:16:51;;;;;;;39.37;18.23;;;4.50;99.90;;;;;;4979955;28;20046;-71
2020/12/12 10:19:17;;;;;;;46.17;19.77;;;4.50;99.90;;;;;;4984178;28;20050;-72
2020/12/12 10:21:45;;;;;;;39.33;19.20;;;4.70;99.90;;;;;;4988494;28;20061;-71
2020/12/12 10:24:12;;;;;;;42.87;18.13;;;4.60;99.90;;;;;;4990409;28;20046;-72
2020/12/12 10:26:38;;;;;;;42.10;18.73;;;4.60;99.90;;;;;;4988767;28;20053;-77
2020/12/12 10:29:05;;;;;;;38.80;17.97;;;4.60;99.90;;;;;;4990324;28;20050;-74
2020/12/12 10:31:32;;;;;;;41.30;17.63;;;4.80;99.90;;;;;;4974217;28;20047;-73
2020/12/12 10:33:59;;;;;;;39.27;17.23;;;4.70;99.90;;;;;;4985041;28;20065;-72
2020/12/12 10:36:25;;;;;;;39.57;17.77;;;4.70;99.90;;;;;;4977304;28;20050;-72
2020/12/12 10:38:53;;;;;;;41.43;18.60;;;4.80;99.90;;;;;;4979184;28;20059;-71
2020/12/12 10:41:20;;;;;;;37.73;17.63;;;4.90;99.90;;;;;;4971600;28;20061;-73
2020/12/12 10:43:48;;;;;;;43.47;19.37;;;5.00;99.90;;;;;;4975884;28;20076;-70
2020/12/12 10:46:16;;;;;;;37.73;16.40;;;5.10;99.90;;;;;;4974279;28;20084;-71
2020/12/12 10:48:42;;;;;;;38.87;16.57;;;4.90;99.90;;;;;;4980829;28;20047;-73
2020/12/12 10:51:09;;;;;;;38.87;17.07;;;4.90;99.90;;;;;;4978224;28;20058;-71
2020/12/12 10:53:36;;;;;;;37.63;17.70;;;4.80;99.90;;;;;;4997241;28;20043;-71
2020/12/12 10:56:04;;;;;;;38.37;17.37;;;4.80;99.90;;;;;;4973207;28;20056;-71
2020/12/12 10:58:31;;;;;;;40.53;17.17;;;4.70;99.90;;;;;;4990297;28;20104;-74
2020/12/12 11:00:58;;;;;;;38.20;16.80;;;4.60;99.90;;;;;;4984805;28;20054;-69
2020/12/12 11:03:25;;;;;;;39.60;16.97;;;4.60;99.90;;;;;;4972351;28;20058;-69
2020/12/12 11:05:51;;;;;;;38.27;16.77;;;4.50;99.90;;;;;;4986905;28;20045;-71
2020/12/12 11:08:18;;;;;;;38.10;17.90;;;4.50;99.90;;;;;;4990911;28;20042;-69
2020/12/12 11:10:44;;;;;;;38.90;18.03;;;4.60;99.90;;;;;;4985350;28;20083;-69
2020/12/12 11:13:12;;;;;;;39.67;18.17;;;4.50;99.90;;;;;;4983904;28;20358;-71
2020/12/12 11:15:40;;;;;;;38.93;18.60;;;4.50;99.90;;;;;;4971881;28;20078;-69
2020/12/12 11:18:06;;;;;;;39.90;17.27;;;4.50;99.90;;;;;;4971170;28;20050;-69
2020/12/12 11:20:33;;;;;;;40.63;18.37;;;4.50;99.90;;;;;;4976834;28;20092;-69
2020/12/12 11:23:00;;;;;;;40.80;18.77;;;4.50;99.90;;;;;;4991345;28;20053;-69
2020/12/12 11:25:26;;;;;;;41.70;19.33;;;4.60;99.90;;;;;;4989587;28;20054;-69
2020/12/12 11:27:54;;;;;;;40.63;17.83;;;4.50;99.90;;;;;;4994165;28;20065;-69
2020/12/12 11:30:23;;;;;;;43.07;19.43;;;4.50;99.90;;;;;;4991665;28;20083;-69
2020/12/12 11:32:53;;;;;;;45.53;18.87;;;4.50;99.90;;;;;;4997486;28;20094;-71
2020/12/12 11:35:26;;;;;;;41.30;18.30;;;4.50;99.90;;;;;;4996791;28;20586;-69
2020/12/12 11:38:09;;;;;;;40.10;18.10;;;4.50;99.90;;;;;;4991188;28;20121;-69
2020/12/12 11:40:42;;;;;;;42.10;19.57;;;4.50;99.90;;;;;;4992909;28;20077;-69
2020/12/12 11:43:37;;;;;;;44.17;18.87;;;4.50;99.90;;;;;;4993869;28;20141;-69
2020/12/12 11:48:54;;;;;;;41.90;17.83;;;4.60;99.90;;;;;;4990957;28;20050;-68
2020/12/12 11:51:20;;;;;;;41.10;18.60;;;4.60;99.90;;;;;;4992337;28;20054;-70
2020/12/12 11:53:47;;;;;;;38.67;17.53;;;4.60;99.90;;;;;;4991708;28;20094;-69
2020/12/12 11:56:17;;;;;;;45.50;18.13;;;4.60;99.90;;;;;;4981197;28;20051;-68
2020/12/12 11:58:44;;;;;;;38.77;18.10;;;4.70;99.90;;;;;;4988831;28;20418;-68
2020/12/12 12:01:11;;;;;;;40.93;18.83;;;4.70;99.90;;;;;;4981873;28;20051;-69
2020/12/12 12:03:38;;;;;;;41.13;18.90;;;4.70;99.90;;;;;;4978488;28;20067;-68
2020/12/12 12:06:07;;;;;;;44.93;19.10;;;4.80;99.90;;;;;;4984988;28;20050;-71
2020/12/12 12:08:40;;;;;;;43.60;20.40;;;4.80;99.90;;;;;;4985487;28;20051;-68
2020/12/12 12:11:16;;;;;;;46.93;20.63;;;4.80;99.90;;;;;;4984716;28;20121;-68
2020/12/12 12:13:42;;;;;;;47.42;20.40;;;4.70;99.90;;;;;;4984193;28;20779;-70
2020/12/12 12:16:10;;;;;;;54.70;21.97;;;4.70;99.90;;;;;;4984264;28;20057;-67
2020/12/12 12:18:37;;;;;;;48.40;20.27;;;4.60;99.90;;;;;;4985540;28;20496;-67
2020/12/12 12:21:04;;;;;;;50.13;20.80;;;4.60;99.90;;;;;;4986370;28;20562;-67
2020/12/12 12:23:33;;;;;;;50.83;21.60;;;4.70;99.90;;;;;;4992171;28;20081;-67
2020/12/12 12:26:00;;;;;;;48.00;21.23;;;4.70;99.90;;;;;;4990689;28;20108;-67
2020/12/12 12:28:27;;;;;;;51.00;21.57;;;4.70;99.90;;;;;;4986002;28;20053;-67
2020/12/12 12:30:53;;;;;;;48.90;20.57;;;4.70;99.90;;;;;;4985290;28;20061;-67
2020/12/12 12:33:20;;;;;;;48.47;21.00;;;4.50;99.90;;;;;;4988262;28;20054;-66
2020/12/12 12:35:48;;;;;;;47.60;20.90;;;4.60;99.90;;;;;;4982745;28;20060;-67
2020/12/12 12:38:15;;;;;;;52.90;21.83;;;4.60;99.90;;;;;;4976907;28;20061;-67
2020/12/12 12:40:42;;;;;;;52.10;23.17;;;4.60;99.90;;;;;;4977979;28;20058;-67
2020/12/12 12:43:08;;;;;;;54.43;23.50;;;4.50;99.90;;;;;;4975945;28;20054;-67